Airfield :
LOGIN :

Register | Disclaimer

   EN    FR    IT 

 










Legend :    VFR   Marginal VFR   IFR   Intensive IFR   Very Intensive IFR
Visi :
Ceiling :
>= 8 km
>= 3000ft
5 to 8 km
1000 to 3000 ft
1500m to 5 km
500 to 1000 ft
800 to 1500m
200 to 500 ft
< 800m
< 200 ft
Symbols :   Thunderstorms  Fog  Heavy snow  Heavy precipitations  Wind > 20 kt
SIGMETs :     Misc.  Thunderstorms  Icing  Turbulence  Mountain Waves  Volcanic Ashes






- Airport Elevation : 297 ft
- IATA code : UIP


LFRQ - Quimper Pluguffan

CURRENT METAR :
  • 062130Z AUTO 34008KT CAVOK 16/13 Q1030

EXPIRED METARs :
  • 062100Z AUTO 35009KT 9999 FEW020 16/13 Q1030 BECMG BKN007
  • 062030Z AUTO 35009KT 9999 BKN020 17/14 Q1029 BECMG BKN007
  • 062000Z AUTO 36010KT 330V030 9999 FEW020 18/13 Q1029 NOSIG
  • 061930Z AUTO 36008KT 330V030 CAVOK 19/14 Q1029 NOSIG
  • 061900Z AUTO 35011KT CAVOK 20/15 Q1029 NOSIG
  • 061830Z AUTO 35011KT 330V030 CAVOK 21/15 Q1029 NOSIG

TAF TAF LFRQ
Valid from the 06 at 18:00 until the 07 at 18:00 UTC


061700Z 0618/0718 35010KT 9999 SCT040
BECMG 0622/0624 BKN007
TEMPO 0700/0708 2000 BR BKN002
BECMG 0708/0710 BKN012
BECMG 0710/0712 BKN020



MET'MAP, your aeronautical weather chart ! - Copyright ORBIFLY December 2007 - Disclaimer

ORBIFLY MET'MAP TEAM :

Programming & Development : Alexandra Zaïnal
Original concept : Baudouin d'Aumeries
Technical & hardware support : Manuel Goepfert
Assistance : Marc-Olivier Méhu




SOURCES & CREDITS :

   NOAA